sensor_id;sensor_type;location;lat;lon;timestamp;P1;durP1;ratioP1;P2;durP2;ratioP2
58250;SDS011;51449;51.676;5.812;2023-02-12T00:01:12;30.10;;;17.27;;
58250;SDS011;51449;51.676;5.812;2023-02-12T00:03:34;24.73;;;16.17;;
58250;SDS011;51449;51.676;5.812;2023-02-12T00:05:59;24.47;;;15.77;;
58250;SDS011;51449;51.676;5.812;2023-02-12T00:08:22;24.80;;;15.93;;
58250;SDS011;51449;51.676;5.812;2023-02-12T00:10:44;23.03;;;15.23;;
58250;SDS011;51449;51.676;5.812;2023-02-12T00:13:06;24.70;;;16.93;;
58250;SDS011;51449;51.676;5.812;2023-02-12T00:15:27;26.20;;;16.93;;
58250;SDS011;51449;51.676;5.812;2023-02-12T00:17:49;24.50;;;16.50;;
58250;SDS011;51449;51.676;5.812;2023-02-12T00:20:11;22.97;;;15.90;;
58250;SDS011;51449;51.676;5.812;2023-02-12T00:22:32;24.13;;;16.00;;
58250;SDS011;51449;51.676;5.812;2023-02-12T00:24:54;22.20;;;15.17;;
58250;SDS011;51449;51.676;5.812;2023-02-12T00:27:16;21.53;;;15.30;;
58250;SDS011;51449;51.676;5.812;2023-02-12T00:29:38;24.07;;;15.90;;
58250;SDS011;51449;51.676;5.812;2023-02-12T00:32:00;26.40;;;14.97;;
58250;SDS011;51449;51.676;5.812;2023-02-12T00:34:21;22.63;;;15.83;;
58250;SDS011;51449;51.676;5.812;2023-02-12T00:36:43;22.70;;;15.10;;
58250;SDS011;51449;51.676;5.812;2023-02-12T00:39:05;23.03;;;15.93;;
58250;SDS011;51449;51.676;5.812;2023-02-12T00:41:27;21.17;;;15.30;;
58250;SDS011;51449;51.676;5.812;2023-02-12T00:43:49;24.77;;;15.93;;
58250;SDS011;51449;51.676;5.812;2023-02-12T00:46:11;26.03;;;17.27;;
58250;SDS011;51449;51.676;5.812;2023-02-12T00:48:33;23.53;;;16.23;;
58250;SDS011;51449;51.676;5.812;2023-02-12T00:50:57;24.10;;;16.50;;
58250;SDS011;51449;51.676;5.812;2023-02-12T00:53:21;25.25;;;16.08;;
58250;SDS011;51449;51.676;5.812;2023-02-12T00:55:43;23.33;;;15.83;;
58250;SDS011;51449;51.676;5.812;2023-02-12T00:58:05;24.43;;;15.43;;
58250;SDS011;51449;51.676;5.812;2023-02-12T01:00:28;22.10;;;15.03;;
58250;SDS011;51449;51.676;5.812;2023-02-12T01:02:50;21.27;;;15.33;;
58250;SDS011;51449;51.676;5.812;2023-02-12T01:05:12;23.17;;;15.53;;
58250;SDS011;51449;51.676;5.812;2023-02-12T01:07:34;25.30;;;16.53;;
58250;SDS011;51449;51.676;5.812;2023-02-12T01:09:56;22.77;;;16.03;;
58250;SDS011;51449;51.676;5.812;2023-02-12T01:12:17;21.67;;;15.87;;
58250;SDS011;51449;51.676;5.812;2023-02-12T01:14:40;22.83;;;15.00;;
58250;SDS011;51449;51.676;5.812;2023-02-12T01:17:01;22.80;;;15.93;;
58250;SDS011;51449;51.676;5.812;2023-02-12T01:19:23;24.83;;;16.40;;
58250;SDS011;51449;51.676;5.812;2023-02-12T01:21:45;24.27;;;16.00;;
58250;SDS011;51449;51.676;5.812;2023-02-12T01:24:06;24.20;;;16.17;;
58250;SDS011;51449;51.676;5.812;2023-02-12T01:26:29;22.93;;;15.97;;
58250;SDS011;51449;51.676;5.812;2023-02-12T01:28:53;24.75;;;16.58;;
58250;SDS011;51449;51.676;5.812;2023-02-12T01:31:23;24.00;;;16.83;;
58250;SDS011;51449;51.676;5.812;2023-02-12T01:33:48;26.03;;;17.83;;
58250;SDS011;51449;51.676;5.812;2023-02-12T01:36:12;24.23;;;16.87;;
58250;SDS011;51449;51.676;5.812;2023-02-12T01:38:34;23.57;;;15.87;;
58250;SDS011;51449;51.676;5.812;2023-02-12T01:41:06;24.90;;;16.77;;
58250;SDS011;51449;51.676;5.812;2023-02-12T01:43:41;25.08;;;16.48;;
58250;SDS011;51449;51.676;5.812;2023-02-12T01:46:03;22.87;;;15.63;;
58250;SDS011;51449;51.676;5.812;2023-02-12T01:48:28;24.40;;;16.03;;
58250;SDS011;51449;51.676;5.812;2023-02-12T01:50:57;23.83;;;15.93;;
58250;SDS011;51449;51.676;5.812;2023-02-12T01:53:23;23.63;;;15.67;;
58250;SDS011;51449;51.676;5.812;2023-02-12T01:55:52;25.13;;;16.40;;
58250;SDS011;51449;51.676;5.812;2023-02-12T01:58:19;26.80;;;17.43;;
58250;SDS011;51449;51.676;5.812;2023-02-12T02:00:41;23.90;;;17.63;;
58250;SDS011;51449;51.676;5.812;2023-02-12T02:03:04;24.37;;;16.90;;
58250;SDS011;51449;51.676;5.812;2023-02-12T02:05:30;26.83;;;18.37;;
58250;SDS011;51449;51.676;5.812;2023-02-12T02:08:03;24.00;;;17.17;;
58250;SDS011;51449;51.676;5.812;2023-02-12T02:10:25;25.37;;;17.10;;
58250;SDS011;51449;51.676;5.812;2023-02-12T02:12:47;25.13;;;16.37;;
58250;SDS011;51449;51.676;5.812;2023-02-12T02:15:27;22.60;;;16.33;;
58250;SDS011;51449;51.676;5.812;2023-02-12T02:36:55;21.07;;;14.20;;
58250;SDS011;51449;51.676;5.812;2023-02-12T02:39:52;18.93;;;12.17;;
58250;SDS011;51449;51.676;5.812;2023-02-12T02:43:13;18.40;;;13.23;;
58250;SDS011;51449;51.676;5.812;2023-02-12T02:45:25;20.33;;;13.27;;
58250;SDS011;51449;51.676;5.812;2023-02-12T02:48:05;21.70;;;14.15;;
58250;SDS011;51449;51.676;5.812;2023-02-12T02:50:38;23.20;;;15.07;;
58250;SDS011;51449;51.676;5.812;2023-02-12T02:53:09;22.37;;;15.37;;
58250;SDS011;51449;51.676;5.812;2023-02-12T02:55:39;24.17;;;16.07;;
58250;SDS011;51449;51.676;5.812;2023-02-12T02:58:20;23.60;;;14.93;;
58250;SDS011;51449;51.676;5.812;2023-02-12T03:01:37;25.67;;;15.90;;
58250;SDS011;51449;51.676;5.812;2023-02-12T03:06:49;23.67;;;15.10;;
58250;SDS011;51449;51.676;5.812;2023-02-12T03:09:29;23.60;;;14.70;;
58250;SDS011;51449;51.676;5.812;2023-02-12T03:12:02;21.27;;;14.27;;
58250;SDS011;51449;51.676;5.812;2023-02-12T03:14:33;22.87;;;14.93;;
58250;SDS011;51449;51.676;5.812;2023-02-12T03:17:04;21.77;;;13.77;;
58250;SDS011;51449;51.676;5.812;2023-02-12T03:19:31;21.17;;;13.53;;
58250;SDS011;51449;51.676;5.812;2023-02-12T03:22:03;24.40;;;15.17;;
58250;SDS011;51449;51.676;5.812;2023-02-12T03:24:42;21.90;;;15.37;;
58250;SDS011;51449;51.676;5.812;2023-02-12T03:27:20;23.57;;;15.63;;
58250;SDS011;51449;51.676;5.812;2023-02-12T03:29:51;23.23;;;14.87;;
58250;SDS011;51449;51.676;5.812;2023-02-12T03:32:26;22.47;;;15.20;;
58250;SDS011;51449;51.676;5.812;2023-02-12T03:38:04;22.13;;;14.73;;
58250;SDS011;51449;51.676;5.812;2023-02-12T03:40:42;23.97;;;15.93;;
58250;SDS011;51449;51.676;5.812;2023-02-12T03:43:54;21.97;;;14.87;;
58250;SDS011;51449;51.676;5.812;2023-02-12T03:46:26;23.10;;;14.70;;
58250;SDS011;51449;51.676;5.812;2023-02-12T03:49:20;23.10;;;15.97;;
58250;SDS011;51449;51.676;5.812;2023-02-12T03:51:51;20.77;;;14.07;;
58250;SDS011;51449;51.676;5.812;2023-02-12T03:54:15;22.83;;;14.83;;
58250;SDS011;51449;51.676;5.812;2023-02-12T03:56:43;22.03;;;14.40;;
58250;SDS011;51449;51.676;5.812;2023-02-12T03:59:12;21.73;;;14.03;;
58250;SDS011;51449;51.676;5.812;2023-02-12T04:01:34;23.43;;;15.03;;
58250;SDS011;51449;51.676;5.812;2023-02-12T04:03:56;23.10;;;15.93;;
58250;SDS011;51449;51.676;5.812;2023-02-12T04:06:24;21.50;;;14.33;;
58250;SDS011;51449;51.676;5.812;2023-02-12T04:08:49;21.87;;;14.27;;
58250;SDS011;51449;51.676;5.812;2023-02-12T04:11:13;23.13;;;14.40;;
58250;SDS011;51449;51.676;5.812;2023-02-12T04:16:50;21.13;;;13.83;;
58250;SDS011;51449;51.676;5.812;2023-02-12T04:19:24;23.27;;;14.80;;
58250;SDS011;51449;51.676;5.812;2023-02-12T04:25:10;22.43;;;14.83;;
58250;SDS011;51449;51.676;5.812;2023-02-12T04:30:33;22.23;;;15.35;;
58250;SDS011;51449;51.676;5.812;2023-02-12T04:33:17;20.53;;;14.27;;
58250;SDS011;51449;51.676;5.812;2023-02-12T04:35:47;20.77;;;14.33;;
58250;SDS011;51449;51.676;5.812;2023-02-12T04:40:56;23.57;;;15.73;;
58250;SDS011;51449;51.676;5.812;2023-02-12T04:43:26;21.80;;;14.80;;
58250;SDS011;51449;51.676;5.812;2023-02-12T04:45:57;23.83;;;14.97;;
58250;SDS011;51449;51.676;5.812;2023-02-12T04:48:19;21.90;;;15.13;;
58250;SDS011;51449;51.676;5.812;2023-02-12T04:50:41;24.60;;;15.30;;
58250;SDS011;51449;51.676;5.812;2023-02-12T04:53:04;22.63;;;14.57;;
58250;SDS011;51449;51.676;5.812;2023-02-12T04:55:26;23.37;;;15.10;;
58250;SDS011;51449;51.676;5.812;2023-02-12T04:57:48;24.83;;;15.50;;
58250;SDS011;51449;51.676;5.812;2023-02-12T05:00:13;23.73;;;14.80;;
58250;SDS011;51449;51.676;5.812;2023-02-12T05:02:35;24.90;;;15.93;;
58250;SDS011;51449;51.676;5.812;2023-02-12T05:04:57;23.93;;;15.37;;
58250;SDS011;51449;51.676;5.812;2023-02-12T05:07:19;22.87;;;15.40;;
58250;SDS011;51449;51.676;5.812;2023-02-12T05:09:40;25.87;;;15.30;;
58250;SDS011;51449;51.676;5.812;2023-02-12T05:12:02;25.07;;;15.40;;
58250;SDS011;51449;51.676;5.812;2023-02-12T05:14:24;24.27;;;15.73;;
58250;SDS011;51449;51.676;5.812;2023-02-12T05:16:46;21.67;;;14.37;;
58250;SDS011;51449;51.676;5.812;2023-02-12T05:19:07;21.63;;;14.47;;
58250;SDS011;51449;51.676;5.812;2023-02-12T05:21:29;25.80;;;16.27;;
58250;SDS011;51449;51.676;5.812;2023-02-12T05:23:51;26.43;;;16.50;;
58250;SDS011;51449;51.676;5.812;2023-02-12T05:26:15;23.83;;;15.60;;
58250;SDS011;51449;51.676;5.812;2023-02-12T05:28:41;24.07;;;14.97;;
58250;SDS011;51449;51.676;5.812;2023-02-12T05:31:04;24.60;;;15.13;;
58250;SDS011;51449;51.676;5.812;2023-02-12T05:33:29;21.10;;;14.57;;
58250;SDS011;51449;51.676;5.812;2023-02-12T05:35:50;26.13;;;16.00;;
58250;SDS011;51449;51.676;5.812;2023-02-12T05:38:12;24.27;;;15.07;;
58250;SDS011;51449;51.676;5.812;2023-02-12T05:40:34;28.83;;;16.00;;
58250;SDS011;51449;51.676;5.812;2023-02-12T05:42:56;24.07;;;16.10;;
58250;SDS011;51449;51.676;5.812;2023-02-12T05:45:18;25.17;;;15.83;;
58250;SDS011;51449;51.676;5.812;2023-02-12T05:47:39;23.90;;;15.90;;
58250;SDS011;51449;51.676;5.812;2023-02-12T05:50:01;22.47;;;15.43;;
58250;SDS011;51449;51.676;5.812;2023-02-12T05:52:22;22.60;;;14.73;;
58250;SDS011;51449;51.676;5.812;2023-02-12T05:54:47;21.87;;;14.90;;
58250;SDS011;51449;51.676;5.812;2023-02-12T05:57:10;24.90;;;15.10;;
58250;SDS011;51449;51.676;5.812;2023-02-12T05:59:32;25.37;;;15.47;;
58250;SDS011;51449;51.676;5.812;2023-02-12T06:01:54;28.47;;;17.47;;
58250;SDS011;51449;51.676;5.812;2023-02-12T06:04:22;26.47;;;15.67;;
58250;SDS011;51449;51.676;5.812;2023-02-12T06:06:48;24.53;;;15.37;;
58250;SDS011;51449;51.676;5.812;2023-02-12T06:09:12;24.80;;;15.15;;
58250;SDS011;51449;51.676;5.812;2023-02-12T06:11:35;24.97;;;15.53;;
58250;SDS011;51449;51.676;5.812;2023-02-12T06:13:57;24.00;;;15.40;;
58250;SDS011;51449;51.676;5.812;2023-02-12T06:16:19;24.53;;;15.57;;
58250;SDS011;51449;51.676;5.812;2023-02-12T06:18:44;25.33;;;16.10;;
58250;SDS011;51449;51.676;5.812;2023-02-12T06:21:05;26.10;;;16.10;;
58250;SDS011;51449;51.676;5.812;2023-02-12T06:23:27;24.77;;;16.20;;
58250;SDS011;51449;51.676;5.812;2023-02-12T06:25:49;24.77;;;15.93;;
58250;SDS011;51449;51.676;5.812;2023-02-12T06:28:16;27.00;;;15.90;;
58250;SDS011;51449;51.676;5.812;2023-02-12T06:30:38;27.30;;;16.10;;
58250;SDS011;51449;51.676;5.812;2023-02-12T06:33:00;24.03;;;15.37;;
58250;SDS011;51449;51.676;5.812;2023-02-12T06:35:21;25.93;;;15.23;;
58250;SDS011;51449;51.676;5.812;2023-02-12T06:37:43;24.67;;;14.53;;
58250;SDS011;51449;51.676;5.812;2023-02-12T06:40:05;22.27;;;14.17;;
58250;SDS011;51449;51.676;5.812;2023-02-12T06:42:28;21.97;;;14.17;;
58250;SDS011;51449;51.676;5.812;2023-02-12T06:44:49;24.67;;;15.53;;
58250;SDS011;51449;51.676;5.812;2023-02-12T06:47:13;22.17;;;13.60;;
58250;SDS011;51449;51.676;5.812;2023-02-12T06:49:34;26.83;;;16.07;;
58250;SDS011;51449;51.676;5.812;2023-02-12T06:51:56;24.10;;;14.73;;
58250;SDS011;51449;51.676;5.812;2023-02-12T06:54:18;24.87;;;16.00;;
58250;SDS011;51449;51.676;5.812;2023-02-12T06:56:39;25.83;;;15.83;;
58250;SDS011;51449;51.676;5.812;2023-02-12T06:59:01;26.37;;;15.67;;
58250;SDS011;51449;51.676;5.812;2023-02-12T07:01:24;24.57;;;15.57;;
58250;SDS011;51449;51.676;5.812;2023-02-12T07:03:49;25.37;;;15.00;;
58250;SDS011;51449;51.676;5.812;2023-02-12T07:06:32;25.70;;;16.73;;
58250;SDS011;51449;51.676;5.812;2023-02-12T07:08:56;27.57;;;16.20;;
58250;SDS011;51449;51.676;5.812;2023-02-12T07:11:21;25.67;;;16.53;;
58250;SDS011;51449;51.676;5.812;2023-02-12T07:13:47;21.57;;;14.60;;
58250;SDS011;51449;51.676;5.812;2023-02-12T07:16:10;24.80;;;15.23;;
58250;SDS011;51449;51.676;5.812;2023-02-12T07:18:35;24.33;;;15.23;;
58250;SDS011;51449;51.676;5.812;2023-02-12T07:20:57;26.80;;;17.27;;
58250;SDS011;51449;51.676;5.812;2023-02-12T07:23:19;26.23;;;17.40;;
58250;SDS011;51449;51.676;5.812;2023-02-12T07:25:41;28.30;;;18.67;;
58250;SDS011;51449;51.676;5.812;2023-02-12T07:28:02;29.73;;;18.87;;
58250;SDS011;51449;51.676;5.812;2023-02-12T07:30:24;28.27;;;17.07;;
58250;SDS011;51449;51.676;5.812;2023-02-12T07:32:46;27.37;;;17.57;;
58250;SDS011;51449;51.676;5.812;2023-02-12T07:35:08;27.23;;;18.67;;
58250;SDS011;51449;51.676;5.812;2023-02-12T07:37:29;30.97;;;18.07;;
58250;SDS011;51449;51.676;5.812;2023-02-12T07:39:51;28.60;;;18.20;;
58250;SDS011;51449;51.676;5.812;2023-02-12T07:42:13;29.67;;;19.03;;
58250;SDS011;51449;51.676;5.812;2023-02-12T07:44:41;28.60;;;19.13;;
58250;SDS011;51449;51.676;5.812;2023-02-12T07:47:03;28.10;;;18.00;;
58250;SDS011;51449;51.676;5.812;2023-02-12T07:49:26;27.70;;;16.97;;
58250;SDS011;51449;51.676;5.812;2023-02-12T07:51:48;27.10;;;17.17;;
58250;SDS011;51449;51.676;5.812;2023-02-12T07:54:11;26.90;;;17.53;;
58250;SDS011;51449;51.676;5.812;2023-02-12T07:56:34;28.53;;;18.93;;
58250;SDS011;51449;51.676;5.812;2023-02-12T07:59:00;29.73;;;18.90;;
58250;SDS011;51449;51.676;5.812;2023-02-12T08:01:26;26.43;;;17.43;;
58250;SDS011;51449;51.676;5.812;2023-02-12T08:03:51;29.80;;;18.10;;
58250;SDS011;51449;51.676;5.812;2023-02-12T08:06:14;31.13;;;18.97;;
58250;SDS011;51449;51.676;5.812;2023-02-12T08:08:36;32.67;;;19.70;;
58250;SDS011;51449;51.676;5.812;2023-02-12T08:10:59;32.13;;;20.53;;
58250;SDS011;51449;51.676;5.812;2023-02-12T08:13:20;34.77;;;22.23;;
58250;SDS011;51449;51.676;5.812;2023-02-12T08:15:42;33.43;;;20.50;;
58250;SDS011;51449;51.676;5.812;2023-02-12T08:18:04;31.70;;;19.90;;
58250;SDS011;51449;51.676;5.812;2023-02-12T08:20:25;32.33;;;19.83;;
58250;SDS011;51449;51.676;5.812;2023-02-12T08:22:47;32.53;;;20.57;;
58250;SDS011;51449;51.676;5.812;2023-02-12T08:25:09;32.77;;;19.43;;
58250;SDS011;51449;51.676;5.812;2023-02-12T08:27:30;35.47;;;20.73;;
58250;SDS011;51449;51.676;5.812;2023-02-12T08:29:52;35.10;;;21.40;;
58250;SDS011;51449;51.676;5.812;2023-02-12T08:32:14;35.50;;;21.47;;
58250;SDS011;51449;51.676;5.812;2023-02-12T08:34:37;33.27;;;20.27;;
58250;SDS011;51449;51.676;5.812;2023-02-12T08:36:59;33.07;;;19.73;;
58250;SDS011;51449;51.676;5.812;2023-02-12T08:39:21;35.80;;;21.70;;
58250;SDS011;51449;51.676;5.812;2023-02-12T08:41:45;35.70;;;22.25;;
58250;SDS011;51449;51.676;5.812;2023-02-12T08:44:08;35.67;;;22.00;;
58250;SDS011;51449;51.676;5.812;2023-02-12T08:46:32;32.70;;;20.63;;
58250;SDS011;51449;51.676;5.812;2023-02-12T08:48:57;38.63;;;22.67;;
58250;SDS011;51449;51.676;5.812;2023-02-12T08:51:23;39.13;;;24.80;;
58250;SDS011;51449;51.676;5.812;2023-02-12T08:53:52;35.43;;;21.97;;
58250;SDS011;51449;51.676;5.812;2023-02-12T08:56:17;38.40;;;22.83;;
58250;SDS011;51449;51.676;5.812;2023-02-12T08:58:40;35.57;;;22.73;;
58250;SDS011;51449;51.676;5.812;2023-02-12T09:01:03;37.80;;;23.23;;
58250;SDS011;51449;51.676;5.812;2023-02-12T09:03:29;36.50;;;22.27;;
58250;SDS011;51449;51.676;5.812;2023-02-12T09:05:51;38.93;;;23.97;;
58250;SDS011;51449;51.676;5.812;2023-02-12T09:08:13;35.07;;;22.47;;
58250;SDS011;51449;51.676;5.812;2023-02-12T09:10:39;33.20;;;21.83;;
58250;SDS011;51449;51.676;5.812;2023-02-12T09:13:03;32.10;;;20.50;;
58250;SDS011;51449;51.676;5.812;2023-02-12T09:15:26;34.73;;;22.13;;
58250;SDS011;51449;51.676;5.812;2023-02-12T09:17:48;32.93;;;21.37;;
58250;SDS011;51449;51.676;5.812;2023-02-12T09:20:10;36.60;;;22.60;;
58250;SDS011;51449;51.676;5.812;2023-02-12T09:22:32;34.37;;;22.30;;
58250;SDS011;51449;51.676;5.812;2023-02-12T09:24:53;32.90;;;20.93;;
58250;SDS011;51449;51.676;5.812;2023-02-12T09:27:15;34.03;;;21.87;;
58250;SDS011;51449;51.676;5.812;2023-02-12T09:29:37;34.80;;;21.47;;
58250;SDS011;51449;51.676;5.812;2023-02-12T09:31:58;35.47;;;20.97;;
58250;SDS011;51449;51.676;5.812;2023-02-12T09:34:21;33.17;;;21.00;;
58250;SDS011;51449;51.676;5.812;2023-02-12T09:36:43;34.47;;;21.03;;
58250;SDS011;51449;51.676;5.812;2023-02-12T09:39:04;36.20;;;21.63;;
58250;SDS011;51449;51.676;5.812;2023-02-12T09:50:13;32.33;;;20.23;;
58250;SDS011;51449;51.676;5.812;2023-02-12T09:53:00;34.27;;;20.37;;
58250;SDS011;51449;51.676;5.812;2023-02-12T09:55:23;33.13;;;20.93;;
58250;SDS011;51449;51.676;5.812;2023-02-12T09:57:51;32.13;;;20.13;;
58250;SDS011;51449;51.676;5.812;2023-02-12T10:00:18;38.50;;;23.58;;
58250;SDS011;51449;51.676;5.812;2023-02-12T10:02:52;36.97;;;22.80;;
58250;SDS011;51449;51.676;5.812;2023-02-12T10:05:15;36.97;;;22.83;;
58250;SDS011;51449;51.676;5.812;2023-02-12T10:17:11;36.83;;;23.57;;
58250;SDS011;51449;51.676;5.812;2023-02-12T10:20:14;37.37;;;23.57;;
58250;SDS011;51449;51.676;5.812;2023-02-12T10:25:57;33.33;;;20.30;;
58250;SDS011;51449;51.676;5.812;2023-02-12T10:28:32;36.93;;;22.43;;
58250;SDS011;51449;51.676;5.812;2023-02-12T10:31:01;35.67;;;21.13;;
58250;SDS011;51449;51.676;5.812;2023-02-12T10:33:31;34.37;;;20.17;;
58250;SDS011;51449;51.676;5.812;2023-02-12T10:36:06;35.90;;;21.23;;
58250;SDS011;51449;51.676;5.812;2023-02-12T10:38:54;35.03;;;20.07;;
58250;SDS011;51449;51.676;5.812;2023-02-12T10:41:21;35.87;;;20.27;;
58250;SDS011;51449;51.676;5.812;2023-02-12T10:43:47;31.47;;;19.53;;
58250;SDS011;51449;51.676;5.812;2023-02-12T10:46:13;34.57;;;21.17;;
58250;SDS011;51449;51.676;5.812;2023-02-12T10:48:37;32.30;;;19.97;;
58250;SDS011;51449;51.676;5.812;2023-02-12T10:53:30;36.00;;;19.87;;
58250;SDS011;51449;51.676;5.812;2023-02-12T10:56:08;38.47;;;22.33;;
58250;SDS011;51449;51.676;5.812;2023-02-12T11:03:55;40.27;;;24.07;;
58250;SDS011;51449;51.676;5.812;2023-02-12T11:06:20;39.63;;;22.90;;
58250;SDS011;51449;51.676;5.812;2023-02-12T11:08:49;36.83;;;21.50;;
58250;SDS011;51449;51.676;5.812;2023-02-12T11:13:46;35.65;;;21.15;;
58250;SDS011;51449;51.676;5.812;2023-02-12T11:16:29;32.77;;;19.03;;
58250;SDS011;51449;51.676;5.812;2023-02-12T11:18:58;38.23;;;21.43;;
58250;SDS011;51449;51.676;5.812;2023-02-12T11:21:27;34.20;;;19.70;;
58250;SDS011;51449;51.676;5.812;2023-02-12T11:23:49;34.83;;;20.43;;
58250;SDS011;51449;51.676;5.812;2023-02-12T11:28:38;26.73;;;15.87;;
58250;SDS011;51449;51.676;5.812;2023-02-12T11:31:21;28.37;;;16.73;;
58250;SDS011;51449;51.676;5.812;2023-02-12T11:34:17;35.03;;;18.60;;
58250;SDS011;51449;51.676;5.812;2023-02-12T11:36:41;32.20;;;18.63;;
58250;SDS011;51449;51.676;5.812;2023-02-12T11:39:17;29.57;;;17.40;;
58250;SDS011;51449;51.676;5.812;2023-02-12T11:42:00;26.57;;;16.20;;
58250;SDS011;51449;51.676;5.812;2023-02-12T11:44:34;28.97;;;16.40;;
58250;SDS011;51449;51.676;5.812;2023-02-12T11:47:07;27.57;;;15.77;;
58250;SDS011;51449;51.676;5.812;2023-02-12T11:49:41;28.10;;;15.70;;
58250;SDS011;51449;51.676;5.812;2023-02-12T11:52:15;26.80;;;15.47;;
58250;SDS011;51449;51.676;5.812;2023-02-12T11:54:45;28.80;;;15.88;;
58250;SDS011;51449;51.676;5.812;2023-02-12T12:02:49;28.33;;;15.90;;
58250;SDS011;51449;51.676;5.812;2023-02-12T12:05:37;30.67;;;17.53;;
58250;SDS011;51449;51.676;5.812;2023-02-12T12:08:11;30.73;;;17.27;;
58250;SDS011;51449;51.676;5.812;2023-02-12T12:16:32;28.87;;;17.17;;
58250;SDS011;51449;51.676;5.812;2023-02-12T12:19:32;29.13;;;16.93;;
58250;SDS011;51449;51.676;5.812;2023-02-12T12:24:40;29.57;;;17.13;;
58250;SDS011;51449;51.676;5.812;2023-02-12T12:30:19;28.40;;;16.30;;
58250;SDS011;51449;51.676;5.812;2023-02-12T12:32:57;30.10;;;16.83;;
58250;SDS011;51449;51.676;5.812;2023-02-12T12:35:30;31.83;;;18.07;;
58250;SDS011;51449;51.676;5.812;2023-02-12T12:38:31;29.23;;;16.97;;
58250;SDS011;51449;51.676;5.812;2023-02-12T12:47:11;28.43;;;16.83;;
58250;SDS011;51449;51.676;5.812;2023-02-12T12:49:46;27.07;;;15.20;;
58250;SDS011;51449;51.676;5.812;2023-02-12T12:52:25;27.70;;;15.60;;
58250;SDS011;51449;51.676;5.812;2023-02-12T12:58:08;28.17;;;16.00;;
58250;SDS011;51449;51.676;5.812;2023-02-12T13:04:01;25.93;;;15.60;;
58250;SDS011;51449;51.676;5.812;2023-02-12T13:23:16;28.53;;;16.50;;
58250;SDS011;51449;51.676;5.812;2023-02-12T13:28:46;27.73;;;15.83;;
58250;SDS011;51449;51.676;5.812;2023-02-12T13:31:20;29.70;;;16.37;;
58250;SDS011;51449;51.676;5.812;2023-02-12T13:33:55;29.97;;;17.43;;
58250;SDS011;51449;51.676;5.812;2023-02-12T13:36:22;27.63;;;16.63;;
58250;SDS011;51449;51.676;5.812;2023-02-12T13:38:55;26.80;;;16.67;;
58250;SDS011;51449;51.676;5.812;2023-02-12T13:41:32;29.17;;;16.60;;
58250;SDS011;51449;51.676;5.812;2023-02-12T13:44:09;29.17;;;17.13;;
58250;SDS011;51449;51.676;5.812;2023-02-12T14:03:13;29.97;;;17.30;;
58250;SDS011;51449;51.676;5.812;2023-02-12T14:05:36;28.20;;;16.37;;
58250;SDS011;51449;51.676;5.812;2023-02-12T14:07:59;31.57;;;17.23;;
58250;SDS011;51449;51.676;5.812;2023-02-12T14:12:52;31.57;;;17.27;;
58250;SDS011;51449;51.676;5.812;2023-02-12T14:20:43;32.67;;;18.43;;
58250;SDS011;51449;51.676;5.812;2023-02-12T14:23:25;33.80;;;18.47;;
58250;SDS011;51449;51.676;5.812;2023-02-12T14:26:05;32.53;;;18.43;;
58250;SDS011;51449;51.676;5.812;2023-02-12T14:28:46;33.20;;;18.20;;
58250;SDS011;51449;51.676;5.812;2023-02-12T14:31:29;34.70;;;19.17;;
58250;SDS011;51449;51.676;5.812;2023-02-12T14:36:35;34.87;;;19.50;;
58250;SDS011;51449;51.676;5.812;2023-02-12T14:39:47;33.73;;;19.40;;
58250;SDS011;51449;51.676;5.812;2023-02-12T14:41:43;35.23;;;18.93;;
58250;SDS011;51449;51.676;5.812;2023-02-12T14:49:15;36.40;;;19.13;;
58250;SDS011;51449;51.676;5.812;2023-02-12T14:51:48;34.85;;;19.20;;
58250;SDS011;51449;51.676;5.812;2023-02-12T14:57:26;35.30;;;19.50;;
58250;SDS011;51449;51.676;5.812;2023-02-12T15:00:02;34.43;;;18.60;;
58250;SDS011;51449;51.676;5.812;2023-02-12T15:02:36;36.53;;;19.93;;
58250;SDS011;51449;51.676;5.812;2023-02-12T15:05:13;34.40;;;18.80;;
58250;SDS011;51449;51.676;5.812;2023-02-12T15:08:18;31.93;;;18.47;;
58250;SDS011;51449;51.676;5.812;2023-02-12T15:11:23;32.77;;;17.83;;
58250;SDS011;51449;51.676;5.812;2023-02-12T15:14:18;31.70;;;18.73;;
58250;SDS011;51449;51.676;5.812;2023-02-12T15:16:48;33.53;;;16.97;;
58250;SDS011;51449;51.676;5.812;2023-02-12T15:25:20;31.90;;;17.07;;
58250;SDS011;51449;51.676;5.812;2023-02-12T15:27:54;34.40;;;18.03;;
58250;SDS011;51449;51.676;5.812;2023-02-12T15:30:23;31.27;;;17.47;;
58250;SDS011;51449;51.676;5.812;2023-02-12T15:32:48;33.13;;;17.10;;
58250;SDS011;51449;51.676;5.812;2023-02-12T15:35:30;31.87;;;17.63;;
58250;SDS011;51449;51.676;5.812;2023-02-12T15:37:58;34.40;;;18.00;;
58250;SDS011;51449;51.676;5.812;2023-02-12T15:40:21;33.03;;;17.63;;
58250;SDS011;51449;51.676;5.812;2023-02-12T15:42:54;33.83;;;19.17;;
58250;SDS011;51449;51.676;5.812;2023-02-12T15:45:24;33.17;;;18.80;;
58250;SDS011;51449;51.676;5.812;2023-02-12T15:47:58;32.53;;;17.60;;
58250;SDS011;51449;51.676;5.812;2023-02-12T15:50:32;32.40;;;17.70;;
58250;SDS011;51449;51.676;5.812;2023-02-12T15:52:56;31.20;;;17.27;;
58250;SDS011;51449;51.676;5.812;2023-02-12T15:55:20;27.97;;;16.50;;
58250;SDS011;51449;51.676;5.812;2023-02-12T15:57:48;31.90;;;17.53;;
58250;SDS011;51449;51.676;5.812;2023-02-12T16:03:21;33.95;;;17.80;;
58250;SDS011;51449;51.676;5.812;2023-02-12T16:05:46;32.77;;;18.70;;
58250;SDS011;51449;51.676;5.812;2023-02-12T16:08:12;31.58;;;17.65;;
58250;SDS011;51449;51.676;5.812;2023-02-12T16:10:40;30.30;;;16.50;;
58250;SDS011;51449;51.676;5.812;2023-02-12T16:13:10;32.50;;;18.87;;
58250;SDS011;51449;51.676;5.812;2023-02-12T16:16:03;40.03;;;28.23;;
58250;SDS011;51449;51.676;5.812;2023-02-12T16:18:34;41.63;;;28.30;;
58250;SDS011;51449;51.676;5.812;2023-02-12T16:21:29;35.13;;;21.47;;
58250;SDS011;51449;51.676;5.812;2023-02-12T16:23:47;31.30;;;18.70;;
58250;SDS011;51449;51.676;5.812;2023-02-12T16:26:18;31.33;;;17.67;;
58250;SDS011;51449;51.676;5.812;2023-02-12T16:28:46;29.52;;;16.38;;
58250;SDS011;51449;51.676;5.812;2023-02-12T16:31:11;31.37;;;17.83;;
58250;SDS011;51449;51.676;5.812;2023-02-12T16:36:05;30.27;;;17.63;;
58250;SDS011;51449;51.676;5.812;2023-02-12T16:38:44;30.65;;;18.42;;
58250;SDS011;51449;51.676;5.812;2023-02-12T16:43:40;32.53;;;17.83;;
58250;SDS011;51449;51.676;5.812;2023-02-12T16:46:03;32.00;;;19.07;;
58250;SDS011;51449;51.676;5.812;2023-02-12T16:50:55;31.53;;;18.43;;
58250;SDS011;51449;51.676;5.812;2023-02-12T16:53:53;30.60;;;17.10;;
58250;SDS011;51449;51.676;5.812;2023-02-12T16:56:11;31.70;;;16.20;;
58250;SDS011;51449;51.676;5.812;2023-02-12T16:58:38;35.20;;;17.40;;
58250;SDS011;51449;51.676;5.812;2023-02-12T17:01:00;35.23;;;18.43;;
58250;SDS011;51449;51.676;5.812;2023-02-12T17:03:24;34.87;;;19.07;;
58250;SDS011;51449;51.676;5.812;2023-02-12T17:05:46;36.47;;;18.43;;
58250;SDS011;51449;51.676;5.812;2023-02-12T17:08:13;38.07;;;21.53;;
58250;SDS011;51449;51.676;5.812;2023-02-12T17:10:43;36.60;;;19.53;;
58250;SDS011;51449;51.676;5.812;2023-02-12T17:13:04;40.67;;;23.33;;
58250;SDS011;51449;51.676;5.812;2023-02-12T17:15:27;37.97;;;20.30;;
58250;SDS011;51449;51.676;5.812;2023-02-12T17:17:58;41.77;;;26.33;;